createdAt,value
2023-04-15T00:00:30.857Z,99863.34
2023-04-15T00:02:57.579Z,99873.47
2023-04-15T00:05:24.260Z,99853.78
2023-04-15T00:07:51.444Z,99851.94
2023-04-15T00:10:18.031Z,99862.16
2023-04-15T00:12:44.747Z,99860.47
2023-04-15T00:15:12.601Z,99860.53
2023-04-15T00:17:40.025Z,99821.84
2023-04-15T00:20:07.298Z,99849.34
2023-04-15T00:22:33.953Z,99863.19
2023-04-15T00:25:00.741Z,99866.63
2023-04-15T00:27:27.354Z,99857.97
2023-04-15T00:29:54.089Z,99836.63
2023-04-15T00:32:21.676Z,99867.78
2023-04-15T00:34:48.334Z,99831.25
2023-04-15T00:37:15.018Z,99863.13
2023-04-15T00:39:41.953Z,99840.91
2023-04-15T00:42:09.240Z,99853.91
2023-04-15T00:44:35.842Z,99854.75
2023-04-15T00:47:04.023Z,99814.44
2023-04-15T00:49:30.950Z,99846.06
2023-04-15T00:51:57.718Z,99844.38
2023-04-15T00:54:24.367Z,99844.50
2023-04-15T00:56:51.346Z,99841.81
2023-04-15T00:59:17.992Z,99865.16
2023-04-15T01:01:44.883Z,99863.47
2023-04-15T01:04:12.412Z,99841.09
2023-04-15T01:06:39.268Z,99847.03
2023-04-15T01:09:06.408Z,99859.97
2023-04-15T01:11:35.946Z,99849.59
2023-04-15T01:14:03.181Z,99855.69
2023-04-15T01:16:29.958Z,99854.78
2023-04-15T01:18:57.170Z,99848.88
2023-04-15T01:21:23.931Z,99855.56
2023-04-15T01:23:51.713Z,99860.78
2023-04-15T01:26:18.713Z,99845.38
2023-04-15T01:28:45.336Z,99842.81
2023-04-15T01:31:16.711Z,99850.56
2023-04-15T01:33:43.682Z,99870.38
2023-04-15T01:36:11.042Z,99873.09
2023-04-15T01:38:38.293Z,99860.16
2023-04-15T01:41:06.938Z,99881.72
2023-04-15T01:43:34.605Z,99872.25
2023-04-15T01:46:01.809Z,99862.94
2023-04-15T01:48:28.496Z,99871.78
2023-04-15T01:50:57.684Z,99891.50
2023-04-15T01:53:25.410Z,99879.41
2023-04-15T01:55:53.351Z,99867.72
2023-04-15T01:58:20.142Z,99875.31
2023-04-15T02:00:47.358Z,99894.31
2023-04-15T02:03:14.138Z,99881.38
2023-04-15T02:05:40.839Z,99879.88
2023-04-15T02:08:07.649Z,99881.50
2023-04-15T02:10:34.427Z,99897.78
2023-04-15T02:13:01.334Z,99890.19
2023-04-15T02:15:28.121Z,99892.78
2023-04-15T02:17:55.524Z,99906.84
2023-04-15T02:20:22.700Z,99905.91
2023-04-15T02:22:50.036Z,99894.91
2023-04-15T02:25:20.576Z,99911.22
2023-04-15T02:27:47.411Z,99912.25
2023-04-15T02:30:14.306Z,99908.13
2023-04-15T02:32:44.006Z,99910.59
2023-04-15T02:35:10.846Z,99913.28
2023-04-15T02:37:43.539Z,99904.78
2023-04-15T02:40:13.970Z,99914.25
2023-04-15T02:42:41.286Z,99910.03
2023-04-15T02:45:08.545Z,99921.19
2023-04-15T02:47:36.242Z,99911.00
2023-04-15T02:50:04.151Z,99925.59
2023-04-15T02:52:31.260Z,99929.00
2023-04-15T02:55:00.823Z,99941.06
2023-04-15T02:57:29.230Z,99923.81
2023-04-15T02:59:55.963Z,99938.44
2023-04-15T03:02:22.774Z,99943.50
2023-04-15T03:04:49.701Z,99931.66
2023-04-15T03:07:17.960Z,99933.28
2023-04-15T03:09:44.952Z,99918.00
2023-04-15T03:12:11.652Z,99941.94
2023-04-15T03:14:38.449Z,99928.31
2023-04-15T03:17:08.153Z,99927.41
2023-04-15T03:19:36.135Z,99928.38
2023-04-15T03:22:02.997Z,99927.47
2023-04-15T03:24:30.499Z,99937.81
2023-04-15T03:26:57.960Z,99903.63
2023-04-15T03:29:30.962Z,99934.41
2023-04-15T03:31:57.578Z,99912.22
2023-04-15T03:34:24.387Z,99929.25
2023-04-15T03:36:51.404Z,99945.63
2023-04-15T03:39:18.053Z,99924.22
2023-04-15T03:41:44.755Z,99939.63
2023-04-15T03:44:11.632Z,99943.91
2023-04-15T03:46:38.394Z,99941.34
2023-04-15T03:49:07.308Z,99953.38
2023-04-15T03:51:34.072Z,99949.13
2023-04-15T03:54:00.774Z,99949.03
2023-04-15T03:56:27.440Z,99949.84
2023-04-15T03:58:54.156Z,99942.03
2023-04-15T04:01:20.899Z,99932.66
2023-04-15T04:03:47.790Z,99948.03
2023-04-15T04:06:15.766Z,99937.81
2023-04-15T04:08:42.520Z,99924.97
2023-04-15T04:11:09.211Z,99931.81
2023-04-15T04:13:36.457Z,99930.06
2023-04-15T04:16:05.240Z,99938.50
2023-04-15T04:18:32.846Z,99957.41
2023-04-15T04:20:59.490Z,99926.59
2023-04-15T04:23:26.572Z,99964.31
2023-04-15T04:25:53.672Z,99956.44
2023-04-15T04:28:20.319Z,99941.09
2023-04-15T04:30:46.929Z,99935.22
2023-04-15T04:33:21.713Z,99960.13
2023-04-15T04:35:48.335Z,99944.59
2023-04-15T04:38:15.060Z,99957.31
2023-04-15T04:40:41.761Z,99943.63
2023-04-15T04:43:09.726Z,99971.25
2023-04-15T04:45:36.398Z,99943.66
2023-04-15T04:48:07.239Z,99948.69
2023-04-15T04:50:34.816Z,99919.56
2023-04-15T04:53:01.987Z,99950.41
2023-04-15T04:55:28.880Z,99948.00
2023-04-15T04:57:55.758Z,99941.97
2023-04-15T05:00:22.933Z,99948.91
2023-04-15T05:02:53.543Z,99956.84
2023-04-15T05:05:20.311Z,99933.66
2023-04-15T05:07:47.409Z,99953.34
2023-04-15T05:10:15.413Z,99964.59
2023-04-15T05:12:41.994Z,99951.63
2023-04-15T05:15:09.254Z,99951.53
2023-04-15T05:17:36.077Z,99945.31
2023-04-15T05:20:03.922Z,99939.38
2023-04-15T05:22:30.721Z,99960.91
2023-04-15T05:24:57.374Z,99957.59
2023-04-15T05:27:24.760Z,99937.03
2023-04-15T05:29:51.734Z,99954.44
2023-04-15T05:32:18.449Z,99967.34
2023-04-15T05:34:45.744Z,99957.19
2023-04-15T05:37:12.882Z,99981.25
2023-04-15T05:39:39.536Z,99957.22
2023-04-15T05:42:06.354Z,99978.69
2023-04-15T05:44:33.130Z,99964.13
2023-04-15T05:46:59.912Z,99964.91
2023-04-15T05:49:26.577Z,99987.50
2023-04-15T05:51:53.192Z,99964.03
2023-04-15T05:54:20.388Z,99983.63
2023-04-15T05:56:47.639Z,99984.53
2023-04-15T05:59:14.255Z,99966.47
2023-04-15T06:01:40.854Z,99968.88
2023-04-15T06:04:07.592Z,99967.31
2023-04-15T06:06:34.817Z,99970.78
2023-04-15T06:09:01.742Z,99976.72
2023-04-15T06:11:31.406Z,99987.03
2023-04-15T06:13:58.205Z,99966.28
2023-04-15T06:16:24.923Z,99974.75
2023-04-15T06:18:51.622Z,99989.13
2023-04-15T06:21:18.893Z,99987.47
2023-04-15T06:23:45.723Z,99980.41
2023-04-15T06:26:12.368Z,99965.13
2023-04-15T06:28:38.955Z,99977.97
2023-04-15T06:31:05.783Z,99953.31
2023-04-15T06:33:32.468Z,99961.97
2023-04-15T06:35:59.151Z,99987.06
2023-04-15T06:38:25.962Z,99986.88
2023-04-15T06:40:58.604Z,99990.13
2023-04-15T06:43:25.948Z,99991.22
2023-04-15T06:45:52.674Z,99960.50
2023-04-15T06:48:19.381Z,99998.88
2023-04-15T06:50:46.113Z,99984.16
2023-04-15T06:53:12.826Z,99996.59
2023-04-15T06:55:40.373Z,99974.09
2023-04-15T06:58:08.059Z,99981.25
2023-04-15T07:00:34.681Z,99976.81
2023-04-15T07:03:03.869Z,100001.88
2023-04-15T07:05:31.168Z,99987.34
2023-04-15T07:07:57.976Z,99993.50
2023-04-15T07:10:25.755Z,99991.94
2023-04-15T07:12:52.685Z,100005.78
2023-04-15T07:15:19.730Z,99997.22
2023-04-15T07:17:46.571Z,99982.53
2023-04-15T07:20:16.675Z,99996.88
2023-04-15T07:22:43.721Z,99981.47
2023-04-15T07:25:11.477Z,99995.88
2023-04-15T07:27:38.196Z,99989.72
2023-04-15T07:30:05.370Z,99970.25
2023-04-15T07:32:32.740Z,99991.19
2023-04-15T07:34:59.408Z,99993.78
2023-04-15T07:37:30.069Z,99973.97
2023-04-15T07:39:56.862Z,99996.19
2023-04-15T07:42:23.534Z,100000.44
2023-04-15T07:44:50.292Z,100007.16
2023-04-15T07:47:16.961Z,99988.66
2023-04-15T07:49:44.535Z,100001.59
2023-04-15T07:52:11.590Z,100009.22
2023-04-15T07:54:38.259Z,99986.09
2023-04-15T07:57:05.077Z,100008.28
2023-04-15T07:59:33.560Z,100012.78
2023-04-15T08:02:00.413Z,99976.75
2023-04-15T08:04:27.679Z,99992.16
2023-04-15T08:06:54.857Z,99992.97
2023-04-15T08:09:21.868Z,100006.66
2023-04-15T08:11:51.776Z,100000.44
2023-04-15T08:14:18.549Z,100013.38
2023-04-15T08:16:45.281Z,100005.63
2023-04-15T08:19:12.100Z,100013.38
2023-04-15T08:21:38.929Z,100012.63
2023-04-15T08:24:07.080Z,99987.78
2023-04-15T08:26:33.766Z,100010.81
2023-04-15T08:29:00.761Z,100009.84
2023-04-15T08:31:30.029Z,100003.50
2023-04-15T08:33:58.032Z,99992.25
2023-04-15T08:36:24.677Z,99993.78
2023-04-15T08:38:51.356Z,100012.53
2023-04-15T08:41:23.631Z,99992.00
2023-04-15T08:43:58.040Z,100014.19
2023-04-15T08:46:24.922Z,100016.00
2023-04-15T08:48:52.295Z,100006.31
2023-04-15T08:51:19.168Z,99994.41
2023-04-15T08:53:47.547Z,99994.47
2023-04-15T08:56:15.739Z,99995.06
2023-04-15T08:58:44.355Z,100008.69
2023-04-15T09:01:13.303Z,99991.59
2023-04-15T09:03:40.885Z,99986.50
2023-04-15T09:06:07.725Z,100005.47
2023-04-15T09:08:37.161Z,100008.13
2023-04-15T09:11:04.131Z,100013.13
2023-04-15T09:13:31.397Z,100005.44
2023-04-15T09:16:00.764Z,100007.50
2023-04-15T09:18:29.771Z,100009.28
2023-04-15T09:20:57.074Z,100016.94
2023-04-15T09:23:23.754Z,100015.09
2023-04-15T09:25:50.713Z,100010.19
2023-04-15T09:28:26.073Z,100015.22
2023-04-15T09:30:55.509Z,100009.94
2023-04-15T09:33:22.430Z,100003.88
2023-04-15T09:36:01.969Z,100032.84
2023-04-15T09:38:29.699Z,100005.19
2023-04-15T09:40:56.360Z,100028.53
2023-04-15T09:43:23.949Z,100028.72
2023-04-15T09:45:54.420Z,100025.94
2023-04-15T09:48:29.074Z,100015.94
2023-04-15T09:50:58.757Z,100020.25
2023-04-15T09:53:26.518Z,100038.09
2023-04-15T09:55:58.233Z,99999.44
2023-04-15T09:58:26.769Z,100032.84
2023-04-15T10:00:54.743Z,100025.53
2023-04-15T10:03:23.753Z,100010.16
2023-04-15T10:05:52.796Z,100035.88
2023-04-15T10:08:21.768Z,99986.03
2023-04-15T10:10:49.232Z,100040.66
2023-04-15T10:13:26.723Z,100031.28
2023-04-15T10:16:05.791Z,100032.22
2023-04-15T10:18:35.401Z,100034.66
2023-04-15T10:21:02.445Z,100010.53
2023-04-15T10:23:29.282Z,100027.13
2023-04-15T10:25:56.373Z,100043.63
2023-04-15T10:28:23.226Z,100041.91
2023-04-15T10:30:50.282Z,100010.97
2023-04-15T10:33:23.708Z,100053.69
2023-04-15T10:35:51.887Z,100009.69
2023-04-15T10:38:38.854Z,100038.97
2023-04-15T10:41:28.202Z,100057.66
2023-04-15T10:44:05.033Z,100051.88
2023-04-15T10:46:39.453Z,100028.88
2023-04-15T10:49:13.271Z,100050.41
2023-04-15T10:52:01.489Z,100049.59
2023-04-15T10:54:28.054Z,100051.19
2023-04-15T10:57:01.665Z,100057.09
2023-04-15T10:59:35.662Z,100063.31
2023-04-15T11:02:04.427Z,100048.59
2023-04-15T11:05:00.065Z,100056.53
2023-04-15T11:07:50.531Z,100035.91
2023-04-15T11:10:26.361Z,100053.84
2023-04-15T11:13:17.295Z,100053.91
2023-04-15T11:15:47.963Z,100040.09
2023-04-15T11:18:23.203Z,100043.25
2023-04-15T11:20:57.632Z,100059.50
2023-04-15T11:23:38.337Z,100048.44
2023-04-15T11:26:09.832Z,100046.16
2023-04-15T11:28:38.741Z,100043.31
2023-04-15T11:31:13.892Z,99973.78
2023-04-15T11:33:59.632Z,100043.97
2023-04-15T11:36:27.673Z,100049.34
2023-04-15T11:38:54.625Z,100025.38
2023-04-15T11:41:23.275Z,100053.94
2023-04-15T11:43:50.958Z,100024.63
2023-04-15T11:46:18.082Z,100015.25
2023-04-15T11:48:47.158Z,100040.97
2023-04-15T11:51:14.315Z,100015.03
2023-04-15T11:53:52.963Z,100040.84
2023-04-15T11:56:24.144Z,100045.06
2023-04-15T11:59:02.425Z,100010.09
2023-04-15T12:01:37.153Z,100035.84
2023-04-15T12:04:12.113Z,100030.66
2023-04-15T12:06:39.250Z,100000.66
2023-04-15T12:09:16.917Z,100027.06
2023-04-15T12:11:47.613Z,100001.31
2023-04-15T12:14:30.149Z,100024.53
2023-04-15T12:17:08.086Z,100026.31
2023-04-15T12:19:40.241Z,100014.25
2023-04-15T12:22:10.538Z,99993.50
2023-04-15T12:24:38.150Z,100009.88
2023-04-15T12:27:07.139Z,100018.41
2023-04-15T12:29:35.236Z,100008.00
2023-04-15T12:32:09.710Z,100004.44
2023-04-15T12:34:58.528Z,99986.41
2023-04-15T12:37:26.218Z,99975.47
2023-04-15T12:39:54.244Z,99947.91
2023-04-15T12:42:21.109Z,99954.72
2023-04-15T12:44:48.072Z,99966.72
2023-04-15T12:47:14.731Z,99989.81
2023-04-15T12:49:41.681Z,99983.94
2023-04-15T12:52:11.621Z,100001.97
2023-04-15T12:54:40.163Z,99983.94
2023-04-15T12:57:07.403Z,99992.41
2023-04-15T12:59:35.188Z,99977.63
2023-04-15T13:02:08.290Z,99970.06
2023-04-15T13:04:35.139Z,99989.81
2023-04-15T13:07:02.308Z,99969.34
2023-04-15T13:09:28.950Z,99993.13
2023-04-15T13:11:56.492Z,99971.69
2023-04-15T13:14:27.236Z,99998.41
2023-04-15T13:16:54.138Z,99970.69
2023-04-15T13:19:20.780Z,99992.19
2023-04-15T13:21:47.863Z,99984.47
2023-04-15T13:24:14.446Z,99981.16
2023-04-15T13:26:41.231Z,99980.19
2023-04-15T13:29:08.118Z,99976.63
2023-04-15T13:31:35.202Z,99983.53
2023-04-15T13:34:01.915Z,99969.13
2023-04-15T13:36:28.689Z,99992.97
2023-04-15T13:38:55.682Z,99979.28
2023-04-15T13:41:22.586Z,99968.09
2023-04-15T13:43:49.272Z,99992.47
2023-04-15T13:46:16.163Z,99952.78
2023-04-15T13:48:46.266Z,99973.41
2023-04-15T13:51:13.211Z,99999.09
2023-04-15T13:53:40.005Z,100007.00
2023-04-15T13:56:08.186Z,99996.66
2023-04-15T13:58:34.881Z,99990.69
2023-04-15T14:01:04.714Z,99991.50
2023-04-15T14:03:32.814Z,99977.81
2023-04-15T14:05:59.739Z,99996.50
2023-04-15T14:08:30.866Z,99990.59
2023-04-15T14:10:57.958Z,100001.84
2023-04-15T14:13:24.816Z,99997.59
2023-04-15T14:15:51.528Z,99995.84
2023-04-15T14:18:18.331Z,100005.38
2023-04-15T14:20:45.390Z,100010.47
2023-04-15T14:23:12.356Z,100025.28
2023-04-15T14:25:41.843Z,100001.22
2023-04-15T14:28:08.653Z,100017.44
2023-04-15T14:30:35.880Z,100028.50
2023-04-15T14:33:02.728Z,100032.97
2023-04-15T14:35:42.165Z,100004.75
2023-04-15T14:38:11.263Z,100031.34
2023-04-15T14:40:38.472Z,100025.50
2023-04-15T14:43:05.478Z,100032.41
2023-04-15T14:45:32.548Z,100047.16
2023-04-15T14:48:00.043Z,100040.38
2023-04-15T14:50:26.891Z,100042.94
2023-04-15T14:52:53.521Z,100061.81
2023-04-15T14:55:20.621Z,100061.00
2023-04-15T14:57:47.522Z,100043.84
2023-04-15T15:00:16.039Z,100056.63
2023-04-15T15:02:43.291Z,100043.75
2023-04-15T15:05:10.921Z,100063.59
2023-04-15T15:07:39.555Z,100069.66
2023-04-15T15:10:07.311Z,100036.84
2023-04-15T15:12:34.309Z,100035.13
2023-04-15T15:15:03.041Z,100048.16
2023-04-15T15:17:31.883Z,100047.22
2023-04-15T15:19:58.555Z,100038.56
2023-04-15T15:22:26.379Z,100049.78
2023-04-15T15:24:53.671Z,100047.22
2023-04-15T15:27:20.504Z,100033.34
2023-04-15T15:29:47.222Z,100033.50
2023-04-15T15:32:14.321Z,100037.91
2023-04-15T15:34:41.137Z,100033.16
2023-04-15T15:37:07.800Z,100041.13
2023-04-15T15:39:35.402Z,100044.59
2023-04-15T15:42:02.305Z,100075.59
2023-04-15T15:44:29.098Z,100073.16
2023-04-15T15:46:55.788Z,100075.88
2023-04-15T15:49:22.720Z,100105.16
2023-04-15T15:51:49.981Z,100101.72
2023-04-15T15:54:20.537Z,100104.38
2023-04-15T15:56:47.164Z,100113.03
2023-04-15T15:59:14.821Z,100108.75
2023-04-15T16:01:41.710Z,100119.97
2023-04-15T16:04:08.598Z,100102.78
2023-04-15T16:06:35.590Z,100113.06
2023-04-15T16:09:02.435Z,100086.31
2023-04-15T16:11:29.833Z,100094.06
2023-04-15T16:13:56.652Z,100110.34
2023-04-15T16:16:24.335Z,100072.50
2023-04-15T16:18:51.169Z,100123.34
2023-04-15T16:21:17.845Z,100108.78
2023-04-15T16:23:44.743Z,100110.53
2023-04-15T16:26:12.034Z,100125.19
2023-04-15T16:28:38.720Z,100120.22
2023-04-15T16:31:05.529Z,100148.59
2023-04-15T16:33:32.630Z,100130.69
2023-04-15T16:35:59.255Z,100143.63
2023-04-15T16:38:26.626Z,100169.56
2023-04-15T16:40:53.228Z,100160.97
2023-04-15T16:43:20.240Z,100158.50
2023-04-15T16:45:51.559Z,100181.88
2023-04-15T16:48:21.705Z,100202.72
2023-04-15T16:50:49.266Z,100181.28
2023-04-15T16:53:16.164Z,100239.03
2023-04-15T16:55:42.760Z,100246.84
2023-04-15T16:58:09.572Z,100259.09
2023-04-15T17:00:37.080Z,100298.78
2023-04-15T17:03:06.360Z,100301.47
2023-04-15T17:05:33.588Z,100304.09
2023-04-15T17:08:00.534Z,100330.72
2023-04-15T17:10:27.892Z,100316.97
2023-04-15T17:12:57.208Z,100324.78
2023-04-15T17:15:24.163Z,100340.38
2023-04-15T17:17:51.231Z,100347.41
2023-04-15T17:20:18.238Z,100351.03
2023-04-15T17:22:45.303Z,100395.00
2023-04-15T17:25:13.754Z,100427.88
2023-04-15T17:27:40.984Z,100458.97
2023-04-15T17:30:09.716Z,100456.44
2023-04-15T17:32:36.798Z,100442.72
2023-04-15T17:35:06.409Z,100457.41
2023-04-15T17:37:36.224Z,100489.41
2023-04-15T17:40:08.008Z,100492.84
2023-04-15T17:42:35.411Z,100466.25
2023-04-15T17:45:02.372Z,100540.47
2023-04-15T17:47:29.018Z,100546.56
2023-04-15T17:49:56.166Z,100558.66
2023-04-15T17:52:22.924Z,100558.69
2023-04-15T17:54:49.776Z,100540.53
2023-04-15T17:57:16.726Z,100519.88
2023-04-15T17:59:45.090Z,100575.16
2023-04-15T18:02:15.176Z,100579.44
2023-04-15T18:04:42.003Z,100588.13
2023-04-15T18:07:09.613Z,100581.25
2023-04-15T18:09:38.559Z,100600.28
2023-04-15T18:12:07.599Z,100594.25
2023-04-15T18:14:35.262Z,100608.97
2023-04-15T18:17:05.189Z,100616.78
2023-04-15T18:19:32.235Z,100614.19
2023-04-15T18:22:00.428Z,100641.88
2023-04-15T18:24:27.620Z,100649.69
2023-04-15T18:26:54.297Z,100654.88
2023-04-15T18:29:25.629Z,100683.44
2023-04-15T18:31:52.835Z,100682.56
2023-04-15T18:34:19.691Z,100697.28
2023-04-15T18:36:46.384Z,100715.47
2023-04-15T18:39:13.064Z,100726.72
2023-04-15T18:41:40.824Z,100747.50
2023-04-15T18:44:07.505Z,100759.66
2023-04-15T18:46:34.319Z,100787.34
2023-04-15T18:49:02.780Z,100818.50
2023-04-15T18:51:31.253Z,100828.88
2023-04-15T18:53:59.017Z,100841.88
2023-04-15T18:56:25.933Z,100874.75
2023-04-15T18:59:27.845Z,100890.34
2023-04-15T19:01:39.422Z,100923.25
2023-04-15T19:04:10.238Z,100946.63
2023-04-15T19:06:37.032Z,100959.59
2023-04-15T19:09:04.002Z,100963.91
2023-04-15T19:11:31.393Z,100982.09
2023-04-15T19:13:58.036Z,100990.78
2023-04-15T19:16:24.861Z,101011.56
2023-04-15T19:18:52.035Z,101025.41
2023-04-15T19:21:18.718Z,101042.72
2023-04-15T19:23:45.516Z,101048.78
2023-04-15T19:26:12.281Z,101055.72
2023-04-15T19:28:38.918Z,101079.97
2023-04-15T19:31:05.597Z,101085.16
2023-04-15T19:33:32.301Z,101097.28
2023-04-15T19:36:04.167Z,101098.16
2023-04-15T19:38:31.613Z,101100.75
2023-04-15T19:40:58.870Z,101107.69
2023-04-15T19:43:25.505Z,101114.56
2023-04-15T19:45:54.791Z,101134.53
2023-04-15T19:48:22.886Z,101134.50
2023-04-15T19:50:49.637Z,101163.97
2023-04-15T19:53:16.321Z,101150.97
2023-04-15T19:55:43.482Z,101177.81
2023-04-15T19:58:10.124Z,101173.50
2023-04-15T20:00:37.122Z,101194.28
2023-04-15T20:03:04.364Z,101201.19
2023-04-15T20:05:31.332Z,101203.81
2023-04-15T20:07:59.846Z,101199.47
2023-04-15T20:10:27.285Z,101210.75
2023-04-15T20:12:54.038Z,101231.53
2023-04-15T20:15:22.766Z,101227.19
2023-04-15T20:17:50.255Z,101235.84
2023-04-15T20:20:16.977Z,101238.44
2023-04-15T20:22:43.618Z,101260.97
2023-04-15T20:25:10.561Z,101270.47
2023-04-15T20:27:37.225Z,101283.50
2023-04-15T20:30:05.132Z,101280.03
2023-04-15T20:32:35.917Z,101294.75
2023-04-15T20:35:04.422Z,101323.31
2023-04-15T20:37:33.284Z,101320.72
2023-04-15T20:40:01.000Z,101325.06
2023-04-15T20:42:27.725Z,101356.25
2023-04-15T20:44:54.528Z,101377.06
2023-04-15T20:47:21.319Z,101378.78
2023-04-15T20:49:48.196Z,101390.88
2023-04-15T20:52:14.961Z,101394.38
2023-04-15T20:54:41.663Z,101394.38
2023-04-15T20:57:08.327Z,101416.06
2023-04-15T20:59:35.090Z,101395.19
2023-04-15T21:02:02.297Z,101423.00
2023-04-15T21:04:29.192Z,101423.84
2023-04-15T21:06:55.824Z,101430.78
2023-04-15T21:09:22.517Z,101429.88
2023-04-15T21:14:19.526Z,101458.53
2023-04-15T21:16:46.357Z,101451.56
2023-04-15T21:19:13.114Z,101451.56
2023-04-15T21:21:39.875Z,101452.44
2023-04-15T21:24:07.952Z,101474.13
2023-04-15T21:26:36.097Z,101449.81
2023-04-15T21:29:03.323Z,101490.63
2023-04-15T21:31:30.641Z,101488.00
2023-04-15T21:33:57.412Z,101469.78
2023-04-15T21:36:24.061Z,101483.72
2023-04-15T21:38:50.743Z,101498.44
2023-04-15T21:41:17.418Z,101493.22
2023-04-15T21:43:44.181Z,101493.22
2023-04-15T21:46:22.539Z,101508.00
2023-04-15T21:48:53.518Z,101504.53
2023-04-15T21:51:20.308Z,101508.00
2023-04-15T21:53:47.014Z,101508.88
2023-04-15T21:56:13.730Z,101517.50
2023-04-15T21:58:40.689Z,101524.44
2023-04-15T22:01:07.795Z,101527.06
2023-04-15T22:03:35.284Z,101528.78
2023-04-15T22:06:03.192Z,101550.47
2023-04-15T22:08:36.079Z,101547.84
2023-04-15T22:11:26.603Z,101560.00
2023-04-15T22:13:57.327Z,101559.97
2023-04-15T22:16:27.084Z,101569.53
2023-04-15T22:18:54.484Z,101574.75
2023-04-15T22:21:21.286Z,101579.06
2023-04-15T22:23:49.473Z,101579.06
2023-04-15T22:26:16.672Z,101581.69
2023-04-15T22:28:43.321Z,101587.69
2023-04-15T22:31:10.275Z,101591.19
2023-04-15T22:33:36.944Z,101612.91
2023-04-15T22:36:03.899Z,101612.91
2023-04-15T22:38:30.674Z,101625.91
2023-04-15T22:40:57.438Z,101627.63
2023-04-15T22:43:24.155Z,101633.66
2023-04-15T22:45:51.505Z,101651.91
2023-04-15T22:48:18.814Z,101653.66
2023-04-15T22:50:45.916Z,101651.03
2023-04-15T22:53:13.020Z,101674.47
2023-04-15T22:55:39.703Z,101673.59
2023-04-15T22:58:06.438Z,101674.44
2023-04-15T23:00:33.125Z,101694.41
2023-04-15T23:03:00.372Z,101706.56
2023-04-15T23:05:27.692Z,101676.94
2023-04-15T23:07:54.617Z,101717.75
2023-04-15T23:10:21.356Z,101723.88
2023-04-15T23:12:48.089Z,101730.81
2023-04-15T23:15:14.871Z,101725.56
2023-04-15T23:17:43.009Z,101731.63
2023-04-15T23:20:10.335Z,101745.56
2023-04-15T23:22:37.863Z,101759.44
2023-04-15T23:25:06.012Z,101756.78
2023-04-15T23:27:32.755Z,101775.06
2023-04-15T23:29:59.340Z,101783.72
2023-04-15T23:32:26.744Z,101786.31
2023-04-15T23:34:53.611Z,101790.66
2023-04-15T23:37:20.204Z,101781.94
2023-04-15T23:39:56.060Z,101801.06
2023-04-15T23:42:24.225Z,101795.00
2023-04-15T23:44:51.194Z,101789.75
2023-04-15T23:47:17.966Z,101816.72
2023-04-15T23:49:44.888Z,101820.19
2023-04-15T23:52:11.695Z,101818.47
2023-04-15T23:54:38.396Z,101824.56
2023-04-15T23:57:05.002Z,101830.63
2023-04-15T23:59:31.822Z,101834.97
